createdAt,value
2023-04-26T00:00:21.075Z,77.082
2023-04-26T00:01:21.243Z,77.225
2023-04-26T00:02:21.555Z,77.228
2023-04-26T00:03:21.633Z,76.906
2023-04-26T00:04:22.563Z,77.040
2023-04-26T00:05:21.540Z,77.154
2023-04-26T00:07:21.032Z,76.603
2023-04-26T00:08:21.248Z,76.408
2023-04-26T00:09:21.455Z,75.830
2023-04-26T00:10:20.607Z,76.530
2023-04-26T00:11:20.786Z,76.116
2023-04-26T00:12:20.957Z,76.574
2023-04-26T00:13:21.125Z,75.359
2023-04-26T00:14:21.281Z,75.371
2023-04-26T00:15:21.505Z,74.732
2023-04-26T00:16:20.752Z,74.562
2023-04-26T00:17:21.164Z,74.686
2023-04-26T00:18:21.640Z,74.409
2023-04-26T00:19:20.810Z,74.612
2023-04-26T00:20:20.988Z,73.734
2023-04-26T00:21:21.099Z,73.303
2023-04-26T00:22:21.489Z,73.747
2023-04-26T00:23:20.963Z,73.828
2023-04-26T00:24:21.091Z,73.889
2023-04-26T00:25:21.347Z,73.757
2023-04-26T00:26:21.497Z,73.734
2023-04-26T00:27:21.612Z,73.965
2023-04-26T00:28:20.768Z,73.866
2023-04-26T00:29:20.901Z,73.879
2023-04-26T00:30:21.127Z,73.362
2023-04-26T00:31:21.721Z,73.557
2023-04-26T00:32:21.121Z,74.028
2023-04-26T00:33:21.683Z,74.400
2023-04-26T00:34:20.855Z,74.783
2023-04-26T00:35:21.008Z,74.980
2023-04-26T00:36:21.229Z,74.560
2023-04-26T00:37:21.538Z,74.882
2023-04-26T00:38:20.764Z,74.953
2023-04-26T00:39:20.893Z,75.123
2023-04-26T00:40:21.139Z,75.197
2023-04-26T00:41:21.309Z,74.932
2023-04-26T00:42:21.457Z,74.940
2023-04-26T00:43:20.641Z,75.525
2023-04-26T00:44:20.776Z,75.371
2023-04-26T00:45:20.936Z,75.590
2023-04-26T00:46:21.826Z,75.807
2023-04-26T00:47:20.990Z,76.040
2023-04-26T00:48:21.432Z,76.404
2023-04-26T00:49:21.585Z,76.490
2023-04-26T00:50:20.823Z,76.540
2023-04-26T00:51:21.034Z,76.698
2023-04-26T00:52:21.119Z,77.070
2023-04-26T00:53:21.349Z,77.049
2023-04-26T00:54:21.627Z,76.950
2023-04-26T00:55:20.851Z,77.463
2023-04-26T00:56:21.283Z,77.522
2023-04-26T00:57:21.460Z,77.824
2023-04-26T00:58:20.615Z,77.906
2023-04-26T00:59:20.812Z,77.923
2023-04-26T01:00:21.268Z,78.297
2023-04-26T01:01:21.784Z,77.972
2023-04-26T01:02:21.349Z,77.965
2023-04-26T01:03:21.132Z,78.659
2023-04-26T01:04:21.636Z,78.871
2023-04-26T01:07:20.707Z,79.130
2023-04-26T01:08:21.027Z,79.197
2023-04-26T01:09:21.421Z,79.409
2023-04-26T01:10:21.589Z,79.538
2023-04-26T01:11:20.764Z,79.599
2023-04-26T01:12:20.896Z,79.832
2023-04-26T01:13:21.018Z,79.496
2023-04-26T01:14:21.185Z,79.460
2023-04-26T01:15:21.348Z,79.378
2023-04-26T01:16:21.714Z,79.813
2023-04-26T01:17:21.154Z,79.662
2023-04-26T01:18:21.542Z,79.689
2023-04-26T01:19:20.660Z,79.887
2023-04-26T01:20:20.856Z,79.779
2023-04-26T01:21:22.473Z,79.557
2023-04-26T01:23:20.781Z,79.689
2023-04-26T01:24:20.951Z,79.914
2023-04-26T01:25:21.115Z,80.383
2023-04-26T01:26:21.252Z,80.120
2023-04-26T01:27:21.436Z,79.912
2023-04-26T01:28:20.744Z,79.903
2023-04-26T01:29:20.892Z,80.101
2023-04-26T01:30:21.105Z,80.284
2023-04-26T01:31:21.431Z,80.231
2023-04-26T01:32:20.743Z,80.227
2023-04-26T01:33:21.137Z,80.322
2023-04-26T01:34:21.331Z,80.915
2023-04-26T01:35:21.623Z,80.852
2023-04-26T01:36:20.785Z,81.123
2023-04-26T01:37:21.147Z,80.999
2023-04-26T01:38:21.345Z,81.785
2023-04-26T01:39:21.562Z,81.329
2023-04-26T01:40:20.748Z,81.570
2023-04-26T01:41:20.964Z,81.480
2023-04-26T01:42:21.355Z,81.968
2023-04-26T01:43:21.606Z,82.012
2023-04-26T01:44:20.701Z,81.530
2023-04-26T01:45:20.909Z,82.075
2023-04-26T01:46:21.313Z,82.220
2023-04-26T01:47:20.766Z,82.327
2023-04-26T01:48:21.176Z,82.550
2023-04-26T01:49:21.426Z,82.426
2023-04-26T01:50:20.602Z,82.296
2023-04-26T01:51:20.816Z,82.613
2023-04-26T01:52:20.939Z,82.540
2023-04-26T01:53:21.109Z,82.140
2023-04-26T01:54:21.341Z,82.737
2023-04-26T01:55:21.549Z,82.392
2023-04-26T01:56:20.614Z,83.902
2023-04-26T01:57:20.980Z,83.387
2023-04-26T01:58:21.211Z,84.177
2023-04-26T01:59:21.319Z,84.486
2023-04-26T02:00:21.752Z,84.061
2023-04-26T02:01:20.923Z,84.377
2023-04-26T02:02:21.518Z,84.373
2023-04-26T02:03:21.342Z,84.089
2023-04-26T02:04:20.799Z,83.853
2023-04-26T02:05:21.274Z,84.150
2023-04-26T02:06:21.499Z,84.133
2023-04-26T02:07:20.650Z,84.415
2023-04-26T02:08:20.743Z,84.555
2023-04-26T02:09:21.055Z,84.860
2023-04-26T02:10:21.232Z,84.732
2023-04-26T02:11:21.539Z,85.037
2023-04-26T02:12:20.651Z,84.572
2023-04-26T02:13:20.897Z,85.030
2023-04-26T02:14:21.258Z,84.339
2023-04-26T02:15:21.480Z,84.831
2023-04-26T02:16:20.794Z,84.740
2023-04-26T02:17:21.184Z,85.453
2023-04-26T02:18:21.628Z,85.558
2023-04-26T02:19:20.897Z,85.390
2023-04-26T02:21:21.352Z,84.930
2023-04-26T02:22:21.494Z,85.615
2023-04-26T02:23:20.877Z,85.419
2023-04-26T02:24:21.176Z,85.474
2023-04-26T02:25:21.405Z,85.089
2023-04-26T02:26:21.631Z,85.539
2023-04-26T02:27:20.786Z,85.661
2023-04-26T02:28:21.170Z,85.300
2023-04-26T02:29:40.203Z,85.365
2023-04-26T02:31:23.336Z,85.241
2023-04-26T02:32:20.732Z,84.742
2023-04-26T02:33:21.239Z,84.648
2023-04-26T02:34:21.413Z,84.751
2023-04-26T02:35:22.059Z,84.776
2023-04-26T02:36:21.221Z,85.094
2023-04-26T02:37:21.536Z,84.944
2023-04-26T02:38:20.706Z,84.707
2023-04-26T02:39:21.192Z,85.678
2023-04-26T02:40:21.370Z,85.096
2023-04-26T02:41:20.920Z,85.405
2023-04-26T02:42:21.083Z,85.314
2023-04-26T02:43:21.272Z,85.512
2023-04-26T02:44:21.464Z,85.081
2023-04-26T02:45:20.949Z,85.503
2023-04-26T02:46:21.206Z,85.459
2023-04-26T02:47:21.643Z,85.329
2023-04-26T02:48:20.978Z,85.278
2023-04-26T02:49:21.207Z,85.011
2023-04-26T02:50:21.442Z,84.913
2023-04-26T02:51:20.607Z,85.339
2023-04-26T02:52:20.735Z,85.018
2023-04-26T02:53:20.973Z,85.066
2023-04-26T02:54:21.319Z,85.165
2023-04-26T02:55:21.623Z,85.444
2023-04-26T02:56:20.845Z,85.804
2023-04-26T02:57:21.163Z,85.785
2023-04-26T02:58:21.592Z,85.430
2023-04-26T02:59:20.844Z,85.577
2023-04-26T03:00:21.099Z,85.625
2023-04-26T03:01:21.761Z,85.960
2023-04-26T03:02:21.625Z,85.918
2023-04-26T03:03:21.515Z,85.955
2023-04-26T03:04:21.529Z,85.848
2023-04-26T03:05:20.735Z,86.494
2023-04-26T03:06:20.882Z,85.718
2023-04-26T03:07:21.171Z,86.006
2023-04-26T03:08:21.426Z,86.090
2023-04-26T03:09:20.640Z,86.081
2023-04-26T03:10:20.795Z,86.020
2023-04-26T03:11:21.063Z,85.999
2023-04-26T03:12:21.228Z,86.216
2023-04-26T03:13:21.421Z,85.905
2023-04-26T03:14:20.651Z,86.231
2023-04-26T03:15:20.786Z,86.407
2023-04-26T03:16:21.221Z,86.647
2023-04-26T03:17:20.591Z,86.840
2023-04-26T03:18:21.064Z,87.173
2023-04-26T03:19:21.242Z,87.313
2023-04-26T03:20:20.723Z,87.507
2023-04-26T03:21:20.906Z,87.103
2023-04-26T03:22:21.129Z,87.244
2023-04-26T03:23:21.287Z,87.042
2023-04-26T03:24:21.403Z,87.589
2023-04-26T03:25:21.564Z,87.709
2023-04-26T03:26:20.642Z,87.523
2023-04-26T03:27:20.852Z,87.582
2023-04-26T03:28:21.080Z,88.005
2023-04-26T03:29:21.219Z,88.360
2023-04-26T03:30:21.433Z,88.697
2023-04-26T03:31:21.748Z,88.385
2023-04-26T03:32:21.144Z,88.629
2023-04-26T03:33:21.544Z,88.974
2023-04-26T03:34:20.752Z,89.195
2023-04-26T03:35:20.881Z,89.083
2023-04-26T03:36:21.040Z,88.766
2023-04-26T03:37:21.208Z,89.211
2023-04-26T03:38:21.471Z,89.159
2023-04-26T03:39:20.623Z,89.237
2023-04-26T03:40:21.214Z,88.921
2023-04-26T03:41:21.401Z,88.968
2023-04-26T03:42:21.577Z,89.287
2023-04-26T03:43:20.709Z,89.533
2023-04-26T03:44:20.851Z,89.756
2023-04-26T03:45:21.092Z,90.027
2023-04-26T03:46:21.568Z,89.945
2023-04-26T03:47:20.696Z,90.092
2023-04-26T03:48:21.118Z,89.705
2023-04-26T03:49:21.267Z,89.974
2023-04-26T03:50:21.460Z,90.338
2023-04-26T03:51:20.578Z,89.624
2023-04-26T03:52:20.761Z,89.878
2023-04-26T03:53:20.905Z,90.073
2023-04-26T03:54:21.009Z,89.636
2023-04-26T03:55:21.248Z,90.153
2023-04-26T03:56:21.349Z,90.111
2023-04-26T03:57:21.585Z,89.924
2023-04-26T03:58:20.710Z,90.090
2023-04-26T03:59:20.940Z,90.304
2023-04-26T04:00:21.161Z,90.033
2023-04-26T04:01:21.371Z,89.388
2023-04-26T04:02:20.740Z,89.430
2023-04-26T04:03:21.903Z,89.468
2023-04-26T04:04:21.884Z,89.912
2023-04-26T04:05:21.586Z,90.351
2023-04-26T04:06:21.086Z,90.706
2023-04-26T04:07:21.504Z,90.786
2023-04-26T04:08:20.645Z,90.576
2023-04-26T04:09:20.740Z,90.603
2023-04-26T04:10:20.992Z,90.118
2023-04-26T04:11:21.192Z,90.921
2023-04-26T04:12:21.316Z,90.948
2023-04-26T04:13:21.576Z,90.635
2023-04-26T04:14:20.749Z,90.490
2023-04-26T04:15:20.853Z,90.529
2023-04-26T04:16:21.451Z,90.672
2023-04-26T04:17:20.757Z,90.578
2023-04-26T04:19:20.908Z,90.948
2023-04-26T04:20:21.074Z,91.072
2023-04-26T04:21:21.297Z,91.457
2023-04-26T04:22:21.460Z,91.082
2023-04-26T04:23:20.643Z,90.717
2023-04-26T04:24:20.765Z,90.790
2023-04-26T04:25:20.977Z,90.368
2023-04-26T04:26:21.191Z,90.277
2023-04-26T04:27:21.500Z,90.336
2023-04-26T04:28:20.659Z,90.134
2023-04-26T04:29:20.834Z,90.937
2023-04-26T04:30:20.984Z,90.445
2023-04-26T04:31:21.259Z,90.593
2023-04-26T04:32:21.004Z,90.336
2023-04-26T04:33:21.308Z,90.145
2023-04-26T04:34:21.502Z,90.166
2023-04-26T04:35:20.646Z,89.781
2023-04-26T04:36:21.021Z,89.769
2023-04-26T04:37:21.133Z,89.104
2023-04-26T04:38:21.231Z,88.665
2023-04-26T04:39:21.408Z,88.474
2023-04-26T04:40:21.568Z,87.927
2023-04-26T04:41:20.654Z,87.744
2023-04-26T04:42:20.813Z,87.709
2023-04-26T04:43:21.093Z,87.534
2023-04-26T04:44:21.249Z,87.341
2023-04-26T04:45:21.519Z,87.122
2023-04-26T04:46:20.708Z,86.685
2023-04-26T04:47:21.123Z,85.825
2023-04-26T04:48:21.391Z,85.115
2023-04-26T04:49:21.560Z,84.446
2023-04-26T04:50:20.689Z,83.771
2023-04-26T04:51:21.198Z,83.336
2023-04-26T04:52:21.351Z,82.430
2023-04-26T04:53:21.449Z,82.323
2023-04-26T04:54:21.685Z,82.148
2023-04-26T04:55:20.952Z,81.495
2023-04-26T04:56:21.127Z,81.026
2023-04-26T04:57:21.386Z,80.059
2023-04-26T04:58:21.593Z,79.786
2023-04-26T04:59:20.720Z,79.325
2023-04-26T05:00:20.894Z,78.562
2023-04-26T05:01:21.336Z,78.186
2023-04-26T05:02:21.183Z,77.513
2023-04-26T05:03:20.777Z,76.746
2023-04-26T05:04:21.055Z,76.547
2023-04-26T05:05:21.134Z,76.097
2023-04-26T05:06:21.274Z,76.321
2023-04-26T05:07:22.152Z,76.549
2023-04-26T05:08:21.010Z,75.388
2023-04-26T05:09:21.212Z,75.931
2023-04-26T05:10:21.405Z,75.994
2023-04-26T05:11:20.575Z,75.287
2023-04-26T05:12:20.885Z,75.815
2023-04-26T05:13:21.117Z,74.987
2023-04-26T05:14:21.349Z,75.819
2023-04-26T05:15:21.534Z,77.103
2023-04-26T05:16:20.673Z,77.288
2023-04-26T05:17:21.145Z,76.477
2023-04-26T05:18:20.600Z,76.418
2023-04-26T05:19:20.780Z,76.889
2023-04-26T05:20:20.996Z,76.748
2023-04-26T05:21:21.109Z,75.802
2023-04-26T05:22:21.240Z,75.954
2023-04-26T05:23:21.579Z,75.277
2023-04-26T05:24:20.691Z,75.071
2023-04-26T05:25:23.727Z,75.682
2023-04-26T05:27:21.067Z,73.845
2023-04-26T05:28:21.244Z,74.880
2023-04-26T05:29:21.360Z,74.297
2023-04-26T05:30:21.599Z,74.688
2023-04-26T05:31:20.765Z,73.347
2023-04-26T05:32:21.325Z,74.072
2023-04-26T05:33:20.801Z,75.142
2023-04-26T05:34:20.997Z,75.083
2023-04-26T05:35:21.318Z,74.726
2023-04-26T05:36:21.683Z,74.385
2023-04-26T05:37:20.774Z,73.158
2023-04-26T05:38:20.960Z,72.609
2023-04-26T05:39:21.166Z,73.013
2023-04-26T05:40:21.341Z,73.376
2023-04-26T05:41:21.546Z,72.992
2023-04-26T05:42:20.976Z,73.717
2023-04-26T05:43:21.147Z,72.668
2023-04-26T05:44:21.284Z,72.037
2023-04-26T05:45:21.471Z,72.828
2023-04-26T05:46:21.013Z,71.960
2023-04-26T05:47:21.410Z,71.377
2023-04-26T05:48:20.825Z,72.086
2023-04-26T05:49:20.971Z,70.839
2023-04-26T05:50:21.139Z,71.087
2023-04-26T05:51:21.047Z,69.566
2023-04-26T05:52:21.249Z,70.312
2023-04-26T05:53:21.452Z,71.081
2023-04-26T05:54:20.601Z,70.026
2023-04-26T05:55:20.744Z,70.862
2023-04-26T05:56:20.957Z,71.003
2023-04-26T05:57:21.249Z,70.764
2023-04-26T05:58:20.763Z,70.175
2023-04-26T05:59:20.923Z,69.700
2023-04-26T06:00:21.193Z,70.324
2023-04-26T06:01:21.413Z,71.071
2023-04-26T06:02:21.768Z,69.443
2023-04-26T06:03:21.630Z,69.616
2023-04-26T06:04:21.785Z,68.290
2023-04-26T06:05:22.201Z,68.048
2023-04-26T06:06:20.767Z,66.892
2023-04-26T06:07:20.970Z,66.601
2023-04-26T06:08:21.131Z,67.631
2023-04-26T06:09:21.775Z,66.473
2023-04-26T06:10:21.100Z,67.152
2023-04-26T06:11:21.267Z,68.102
2023-04-26T06:12:21.520Z,66.936
2023-04-26T06:13:21.264Z,67.159
2023-04-26T06:14:30.310Z,67.299
2023-04-26T06:15:21.166Z,67.602
2023-04-26T06:16:21.363Z,66.684
2023-04-26T06:17:20.944Z,65.393
2023-04-26T06:18:21.367Z,65.283
2023-04-26T06:19:20.651Z,65.281
2023-04-26T06:20:20.975Z,66.509
2023-04-26T06:21:21.164Z,67.539
2023-04-26T06:22:21.353Z,65.704
2023-04-26T06:23:21.954Z,64.693
2023-04-26T06:24:21.159Z,66.309
2023-04-26T06:25:21.276Z,66.107
2023-04-26T06:26:21.824Z,65.420
2023-04-26T06:27:21.023Z,65.250
2023-04-26T06:28:21.420Z,66.309
2023-04-26T06:29:21.503Z,64.130
2023-04-26T06:30:20.692Z,64.703
2023-04-26T06:31:21.169Z,64.851
2023-04-26T06:32:20.592Z,61.977
2023-04-26T06:33:21.061Z,63.079
2023-04-26T06:34:21.278Z,62.996
2023-04-26T06:35:21.489Z,63.064
2023-04-26T06:36:20.624Z,64.087
2023-04-26T06:37:21.246Z,61.987
2023-04-26T06:38:21.443Z,62.471
2023-04-26T06:39:21.599Z,61.334
2023-04-26T06:40:20.873Z,61.844
2023-04-26T06:41:21.347Z,61.889
2023-04-26T06:42:21.753Z,64.047
2023-04-26T06:43:20.978Z,64.808
2023-04-26T06:44:21.244Z,62.887
2023-04-26T06:45:21.454Z,64.459
2023-04-26T06:46:21.503Z,63.554
2023-04-26T06:47:20.935Z,63.036
2023-04-26T06:48:21.363Z,62.587
2023-04-26T06:49:21.542Z,62.248
2023-04-26T06:50:20.747Z,63.545
2023-04-26T06:51:21.215Z,61.544
2023-04-26T06:52:23.047Z,60.081
2023-04-26T06:53:24.360Z,62.091
2023-04-26T06:56:23.771Z,60.234
2023-04-26T06:57:24.146Z,61.218
2023-04-26T06:58:24.314Z,60.651
2023-04-26T06:59:24.555Z,61.580
2023-04-26T07:00:23.761Z,60.506
2023-04-26T07:01:24.079Z,60.188
2023-04-26T07:02:25.163Z,58.796
2023-04-26T07:03:24.316Z,59.333
2023-04-26T07:04:24.367Z,59.362
2023-04-26T07:05:25.070Z,60.100
2023-04-26T07:06:24.429Z,59.713
2023-04-26T07:07:23.843Z,60.287
2023-04-26T07:08:24.040Z,59.469
2023-04-26T07:09:24.322Z,59.589
2023-04-26T07:10:24.558Z,58.874
2023-04-26T07:11:26.416Z,58.754
2023-04-26T07:12:23.624Z,57.731
2023-04-26T07:13:24.895Z,58.231
2023-04-26T07:15:24.651Z,57.161
2023-04-26T07:16:24.187Z,57.338
2023-04-26T07:17:24.385Z,57.865
2023-04-26T07:18:23.696Z,56.337
2023-04-26T07:19:23.840Z,56.242
2023-04-26T07:20:24.091Z,54.584
2023-04-26T07:21:24.510Z,56.982
2023-04-26T07:22:23.815Z,55.177
2023-04-26T07:23:24.120Z,54.035
2023-04-26T07:24:24.410Z,52.902
2023-04-26T07:25:24.627Z,53.279
2023-04-26T07:26:23.824Z,55.225
2023-04-26T07:27:24.076Z,53.380
2023-04-26T07:28:24.284Z,54.584
2023-04-26T07:29:24.680Z,51.969
2023-04-26T07:30:23.835Z,49.758
2023-04-26T07:31:27.348Z,50.886
2023-04-26T07:33:24.778Z,50.607
2023-04-26T07:35:23.801Z,51.982
2023-04-26T07:36:26.524Z,52.137
2023-04-26T07:37:23.769Z,51.940
2023-04-26T07:38:24.116Z,51.155
2023-04-26T07:39:24.461Z,51.961
2023-04-26T07:40:23.655Z,52.215
2023-04-26T07:41:23.868Z,52.974
2023-04-26T07:42:24.310Z,53.756
2023-04-26T07:43:24.876Z,51.364
2023-04-26T07:44:24.192Z,52.516
2023-04-26T07:45:24.438Z,54.393
2023-04-26T07:46:24.013Z,53.583
2023-04-26T07:47:24.336Z,54.916
2023-04-26T07:49:24.400Z,53.442
2023-04-26T07:50:24.695Z,52.783
2023-04-26T07:51:24.102Z,52.360
2023-04-26T07:52:24.307Z,52.452
2023-04-26T07:53:24.671Z,52.412
2023-04-26T07:54:24.136Z,51.395
2023-04-26T07:55:24.408Z,50.817
2023-04-26T07:56:24.625Z,50.123
2023-04-26T07:57:23.931Z,50.949
2023-04-26T07:58:24.268Z,49.461
2023-04-26T07:59:24.591Z,51.523
2023-04-26T08:00:23.838Z,49.907
2023-04-26T08:01:24.821Z,49.383
2023-04-26T08:02:33.150Z,49.938
2023-04-26T08:03:25.369Z,48.297
2023-04-26T08:04:24.542Z,45.625
2023-04-26T08:05:25.453Z,46.764
2023-04-26T08:06:24.406Z,46.747
2023-04-26T08:07:24.589Z,46.237
2023-04-26T08:08:23.761Z,47.838
2023-04-26T08:10:24.546Z,46.951
2023-04-26T08:11:23.916Z,49.650
2023-04-26T08:12:24.377Z,48.994
2023-04-26T08:15:24.355Z,48.892
2023-04-26T08:16:23.732Z,48.900
2023-04-26T08:17:24.341Z,48.715
2023-04-26T08:18:24.183Z,49.907
2023-04-26T08:20:24.589Z,47.939
2023-04-26T08:21:23.842Z,48.959
2023-04-26T08:22:24.149Z,48.440
2023-04-26T08:23:24.564Z,49.005
2023-04-26T08:24:23.835Z,49.192
2023-04-26T08:25:24.139Z,46.941
2023-04-26T08:26:24.702Z,46.832
2023-04-26T08:27:23.963Z,48.509
2023-04-26T08:28:24.371Z,46.487
2023-04-26T08:29:23.791Z,44.855
2023-04-26T08:30:24.220Z,46.592
2023-04-26T08:31:23.795Z,46.836
2023-04-26T08:32:24.313Z,46.502
2023-04-26T08:33:23.944Z,47.630
2023-04-26T08:34:24.146Z,48.768
2023-04-26T08:35:24.381Z,47.416
2023-04-26T08:36:23.767Z,46.844
2023-04-26T08:37:23.943Z,46.947
2023-04-26T08:38:24.384Z,46.180
2023-04-26T08:39:24.676Z,45.465
2023-04-26T08:40:24.260Z,43.699
2023-04-26T08:41:24.487Z,42.936
2023-04-26T08:42:23.689Z,42.814
2023-04-26T08:43:23.988Z,42.518
2023-04-26T08:44:24.353Z,41.391
2023-04-26T08:45:23.844Z,41.435
2023-04-26T08:46:24.150Z,42.808
2023-04-26T08:47:24.560Z,40.546
2023-04-26T08:48:24.034Z,41.431
2023-04-26T08:49:24.474Z,42.108
2023-04-26T08:50:23.774Z,43.105
2023-04-26T08:51:24.082Z,44.908
2023-04-26T08:52:24.379Z,45.209
2023-04-26T08:53:23.643Z,44.738
2023-04-26T08:54:23.803Z,44.233
2023-04-26T08:55:24.119Z,43.949
2023-04-26T08:56:24.356Z,46.682
2023-04-26T08:57:24.649Z,47.008
2023-04-26T08:58:23.848Z,46.785
2023-04-26T08:59:24.052Z,47.103
2023-04-26T09:00:24.462Z,46.354
2023-04-26T09:01:23.915Z,46.369
2023-04-26T09:02:24.724Z,47.353
2023-04-26T09:03:25.381Z,47.130
2023-04-26T09:04:25.046Z,48.448
2023-04-26T09:05:24.364Z,48.709
2023-04-26T09:06:25.013Z,48.639
2023-04-26T09:07:24.207Z,49.037
2023-04-26T09:08:24.423Z,48.917
2023-04-26T09:09:23.571Z,49.379
2023-04-26T09:10:24.143Z,50.064
2023-04-26T09:11:24.439Z,49.142
2023-04-26T09:12:23.755Z,48.358
2023-04-26T09:13:24.084Z,47.216
2023-04-26T09:14:24.389Z,46.720
2023-04-26T09:15:23.616Z,45.202
2023-04-26T09:16:24.330Z,44.782
2023-04-26T09:17:24.084Z,45.062
2023-04-26T09:20:26.834Z,43.464
2023-04-26T09:23:24.289Z,41.442
2023-04-26T09:24:24.597Z,41.612
2023-04-26T09:25:25.908Z,39.573
2023-04-26T09:27:24.331Z,40.405
2023-04-26T09:28:24.496Z,38.152
2023-04-26T09:29:23.651Z,37.276
2023-04-26T09:30:23.922Z,37.149
2023-04-26T09:31:24.402Z,37.742
2023-04-26T09:32:23.908Z,40.275
2023-04-26T09:33:24.287Z,39.443
2023-04-26T09:34:24.537Z,40.298
2023-04-26T09:35:23.828Z,41.116
2023-04-26T09:36:24.232Z,41.536
2023-04-26T09:37:24.504Z,40.313
2023-04-26T09:39:27.399Z,41.330
2023-04-26T09:40:27.542Z,41.667
2023-04-26T09:41:26.813Z,41.375
2023-04-26T09:42:27.117Z,39.901
2023-04-26T09:43:27.341Z,39.684
2023-04-26T09:44:27.609Z,40.723
2023-04-26T09:45:26.872Z,40.983
2023-04-26T09:46:27.262Z,41.389
2023-04-26T09:47:26.753Z,40.458
2023-04-26T09:48:27.223Z,40.630
2023-04-26T09:49:27.026Z,40.300
2023-04-26T09:50:27.396Z,39.546
2023-04-26T09:51:27.664Z,39.403
2023-04-26T09:52:26.956Z,38.259
2023-04-26T09:53:27.271Z,39.834
2023-04-26T09:54:26.639Z,37.788
2023-04-26T09:55:34.541Z,39.026
2023-04-26T09:56:27.132Z,37.935
2023-04-26T09:57:27.332Z,38.413
2023-04-26T09:58:27.486Z,39.039
2023-04-26T09:59:26.656Z,38.837
2023-04-26T10:00:26.860Z,39.531
2023-04-26T10:01:27.571Z,40.540
2023-04-26T10:02:27.004Z,38.919
2023-04-26T10:03:27.708Z,38.102
2023-04-26T10:04:27.134Z,38.324
2023-04-26T10:05:27.492Z,36.945
2023-04-26T10:06:26.621Z,36.239
2023-04-26T10:07:26.853Z,36.975
2023-04-26T10:08:27.120Z,35.508
2023-04-26T10:09:27.393Z,38.846
2023-04-26T10:10:27.606Z,39.354
2023-04-26T10:11:26.757Z,40.183
2023-04-26T10:12:26.985Z,40.782
2023-04-26T10:13:27.110Z,41.986
2023-04-26T10:14:27.340Z,41.200
2023-04-26T10:15:27.556Z,42.465
2023-04-26T10:16:26.722Z,41.911
2023-04-26T10:17:27.234Z,41.986
2023-04-26T10:18:26.903Z,42.539
2023-04-26T10:19:27.421Z,42.457
2023-04-26T10:20:26.607Z,42.087
2023-04-26T10:21:26.857Z,42.293
2023-04-26T10:22:27.112Z,43.094
2023-04-26T10:23:27.398Z,42.905
2023-04-26T10:24:27.599Z,43.502
2023-04-26T10:25:27.049Z,44.038
2023-04-26T10:26:27.193Z,42.787
2023-04-26T10:27:27.610Z,41.393
2023-04-26T10:28:26.852Z,41.454
2023-04-26T10:29:27.345Z,41.492
2023-04-26T10:30:27.464Z,41.919
2023-04-26T10:31:26.656Z,41.980
2023-04-26T10:32:27.014Z,42.468
2023-04-26T10:33:27.411Z,42.066
2023-04-26T10:34:26.723Z,42.550
2023-04-26T10:35:26.909Z,41.807
2023-04-26T10:36:27.147Z,39.359
2023-04-26T10:37:27.528Z,40.700
2023-04-26T10:38:26.744Z,39.529
2023-04-26T10:39:26.966Z,40.065
2023-04-26T10:40:27.279Z,39.922
2023-04-26T10:41:27.484Z,40.162
2023-04-26T10:42:27.945Z,39.792
2023-04-26T10:43:27.715Z,40.563
2023-04-26T10:44:26.935Z,38.944
2023-04-26T10:45:27.419Z,39.626
2023-04-26T10:46:27.038Z,39.298
2023-04-26T10:47:27.645Z,39.745
2023-04-26T10:48:27.219Z,40.637
2023-04-26T10:49:28.278Z,39.203
2023-04-26T10:52:26.832Z,39.680
2023-04-26T10:53:27.192Z,40.109
2023-04-26T10:54:27.470Z,39.035
2023-04-26T10:55:27.016Z,38.137
2023-04-26T10:56:27.460Z,37.616
2023-04-26T10:57:27.668Z,38.249
2023-04-26T10:58:26.938Z,38.362
2023-04-26T10:59:47.472Z,38.148
2023-04-26T11:01:30.225Z,37.891
2023-04-26T11:02:29.843Z,37.940
2023-04-26T11:03:30.493Z,38.303
2023-04-26T11:04:29.770Z,38.652
2023-04-26T11:05:30.185Z,38.984
2023-04-26T11:06:30.438Z,39.125
2023-04-26T11:07:29.629Z,39.016
2023-04-26T11:08:29.807Z,38.530
2023-04-26T11:09:30.028Z,38.024
2023-04-26T11:10:30.365Z,38.743
2023-04-26T11:11:29.598Z,37.732
2023-04-26T11:12:29.873Z,37.822
2023-04-26T11:13:30.209Z,37.307
2023-04-26T11:14:30.640Z,35.882
2023-04-26T11:15:29.848Z,35.323
2023-04-26T11:16:30.273Z,36.243
2023-04-26T11:17:29.697Z,36.605
2023-04-26T11:18:30.010Z,35.970
2023-04-26T11:19:30.415Z,37.086
2023-04-26T11:20:30.871Z,36.918
2023-04-26T11:21:30.071Z,37.179
2023-04-26T11:22:30.360Z,36.872
2023-04-26T11:23:30.612Z,36.412
2023-04-26T11:24:29.820Z,36.878
2023-04-26T11:25:30.298Z,36.073
2023-04-26T11:26:29.638Z,34.639
2023-04-26T11:27:29.832Z,33.487
2023-04-26T11:28:30.729Z,33.378
2023-04-26T11:29:29.884Z,35.365
2023-04-26T11:30:30.108Z,36.063
2023-04-26T11:31:30.445Z,35.522
2023-04-26T11:32:30.030Z,36.742
2023-04-26T11:33:30.468Z,37.221
2023-04-26T11:34:30.020Z,37.862
2023-04-26T11:35:30.229Z,37.828
2023-04-26T11:36:30.516Z,38.533
2023-04-26T11:37:29.725Z,37.944
2023-04-26T11:38:29.911Z,39.521
2023-04-26T11:39:33.043Z,38.820
2023-04-26T11:42:29.897Z,37.978
2023-04-26T11:43:30.392Z,37.183
2023-04-26T11:44:29.855Z,37.055
2023-04-26T11:45:30.500Z,36.472
2023-04-26T11:46:29.739Z,35.638
2023-04-26T11:47:30.051Z,33.836
2023-04-26T11:48:30.511Z,33.843
2023-04-26T11:49:29.686Z,33.553
2023-04-26T11:50:29.999Z,32.575
2023-04-26T11:51:32.207Z,32.874
2023-04-26T11:53:29.645Z,34.251
2023-04-26T11:54:29.811Z,35.537
2023-04-26T11:55:29.993Z,35.464
2023-04-26T11:56:30.172Z,35.632
2023-04-26T11:57:30.381Z,37.685
2023-04-26T11:58:30.621Z,36.967
2023-04-26T11:59:30.092Z,36.565
2023-04-26T12:00:30.508Z,37.364
2023-04-26T12:01:29.762Z,37.885
2023-04-26T12:02:30.476Z,37.441
2023-04-26T12:03:30.883Z,37.750
2023-04-26T12:04:31.992Z,37.395
2023-04-26T12:06:30.272Z,36.983
2023-04-26T12:07:30.454Z,36.401
2023-04-26T12:08:30.595Z,35.537
2023-04-26T12:09:29.880Z,35.125
2023-04-26T12:10:30.331Z,34.835
2023-04-26T12:11:30.535Z,34.661
2023-04-26T12:12:29.835Z,34.543
2023-04-26T12:13:30.043Z,34.923
2023-04-26T12:14:30.279Z,34.572
2023-04-26T12:15:32.111Z,33.965
2023-04-26T12:17:30.262Z,35.175
2023-04-26T12:18:29.700Z,32.401
2023-04-26T12:19:30.012Z,32.521
2023-04-26T12:20:30.321Z,32.252
2023-04-26T12:21:32.472Z,32.258
2023-04-26T12:23:29.977Z,33.595
2023-04-26T12:24:30.306Z,33.666
2023-04-26T12:25:29.840Z,32.764
2023-04-26T12:26:30.141Z,33.864
2023-04-26T12:27:30.519Z,33.815
2023-04-26T12:28:29.774Z,33.485
2023-04-26T12:29:30.068Z,33.048
2023-04-26T12:30:30.421Z,34.263
2023-04-26T12:31:30.787Z,33.303
2023-04-26T12:32:30.329Z,33.563
2023-04-26T12:33:35.068Z,33.019
2023-04-26T12:35:30.566Z,33.370
2023-04-26T12:36:29.891Z,33.382
2023-04-26T12:37:30.230Z,34.318
2023-04-26T12:38:30.923Z,35.390
2023-04-26T12:39:30.142Z,35.485
2023-04-26T12:40:30.419Z,35.346
2023-04-26T12:41:29.648Z,35.823
2023-04-26T12:42:29.855Z,35.297
2023-04-26T12:43:30.322Z,36.496
2023-04-26T12:44:30.645Z,36.254
2023-04-26T12:45:30.250Z,36.805
2023-04-26T12:46:30.733Z,36.401
2023-04-26T12:48:30.414Z,37.690
2023-04-26T12:49:30.713Z,39.211
2023-04-26T12:50:29.849Z,37.755
2023-04-26T12:51:30.007Z,37.799
2023-04-26T12:52:30.296Z,38.024
2023-04-26T12:53:29.675Z,38.001
2023-04-26T12:54:30.013Z,37.851
2023-04-26T12:55:32.923Z,37.866
2023-04-26T12:57:29.740Z,36.918
2023-04-26T12:58:30.204Z,37.629
2023-04-26T12:59:30.412Z,37.620
2023-04-26T13:00:29.682Z,37.906
2023-04-26T13:01:29.916Z,35.783
2023-04-26T13:02:30.452Z,35.943
2023-04-26T13:03:30.446Z,35.327
2023-04-26T13:04:31.036Z,35.728